sensor_id;sensor_type;location;lat;lon;timestamp;pressure;altitude;pressure_sealevel;temperature;humidity
30110;BME280;14965;50.660;13.226;2024-01-11T00:01:57;95996.06;;;-8.72;84.76
30110;BME280;14965;50.660;13.226;2024-01-11T00:04:23;95989.72;;;-8.76;84.52
30110;BME280;14965;50.660;13.226;2024-01-11T00:06:50;95983.03;;;-8.79;84.64
30110;BME280;14965;50.660;13.226;2024-01-11T00:09:16;95982.00;;;-8.83;84.70
30110;BME280;14965;50.660;13.226;2024-01-11T00:11:42;95975.06;;;-8.84;83.85
30110;BME280;14965;50.660;13.226;2024-01-11T00:14:10;95972.47;;;-8.89;83.88
30110;BME280;14965;50.660;13.226;2024-01-11T00:16:35;95982.94;;;-8.92;84.39
30110;BME280;14965;50.660;13.226;2024-01-11T00:19:01;95972.53;;;-8.94;84.58
30110;BME280;14965;50.660;13.226;2024-01-11T00:21:27;95971.44;;;-8.93;84.83
30110;BME280;14965;50.660;13.226;2024-01-11T00:23:53;95969.88;;;-8.94;84.14
30110;BME280;14965;50.660;13.226;2024-01-11T00:26:19;95981.63;;;-8.95;84.59
30110;BME280;14965;50.660;13.226;2024-01-11T00:28:45;95971.28;;;-9.01;84.32
30110;BME280;14965;50.660;13.226;2024-01-11T00:31:13;95966.56;;;-9.10;84.66
30110;BME280;14965;50.660;13.226;2024-01-11T00:33:39;95965.50;;;-9.09;85.16
30110;BME280;14965;50.660;13.226;2024-01-11T00:36:05;95963.91;;;-9.10;84.88
30110;BME280;14965;50.660;13.226;2024-01-11T00:38:31;95970.91;;;-9.14;84.58
30110;BME280;14965;50.660;13.226;2024-01-11T00:40:57;95968.78;;;-9.17;84.31
30110;BME280;14965;50.660;13.226;2024-01-11T00:43:23;95966.91;;;-9.16;84.78
30110;BME280;14965;50.660;13.226;2024-01-11T00:45:49;95966.41;;;-9.18;84.71
30110;BME280;14965;50.660;13.226;2024-01-11T00:48:16;95970.22;;;-9.24;84.62
30110;BME280;14965;50.660;13.226;2024-01-11T00:50:42;95969.19;;;-9.29;85.15
30110;BME280;14965;50.660;13.226;2024-01-11T00:53:08;95958.22;;;-9.27;85.53
30110;BME280;14965;50.660;13.226;2024-01-11T00:55:34;95959.25;;;-9.23;85.53
30110;BME280;14965;50.660;13.226;2024-01-11T00:58:00;95958.38;;;-9.18;85.72
30110;BME280;14965;50.660;13.226;2024-01-11T01:00:26;95956.22;;;-9.16;86.10
30110;BME280;14965;50.660;13.226;2024-01-11T01:02:52;95948.47;;;-9.18;85.90
30110;BME280;14965;50.660;13.226;2024-01-11T01:05:19;95945.28;;;-9.20;85.70
30110;BME280;14965;50.660;13.226;2024-01-11T01:07:45;95946.66;;;-9.22;85.75
30110;BME280;14965;50.660;13.226;2024-01-11T01:10:11;95934.38;;;-9.23;86.03
30110;BME280;14965;50.660;13.226;2024-01-11T01:12:37;95941.88;;;-9.25;85.86
30110;BME280;14965;50.660;13.226;2024-01-11T01:15:04;95949.19;;;-9.31;85.77
30110;BME280;14965;50.660;13.226;2024-01-11T01:17:30;95942.44;;;-9.29;86.30
30110;BME280;14965;50.660;13.226;2024-01-11T01:19:56;95954.97;;;-9.24;86.85
30110;BME280;14965;50.660;13.226;2024-01-11T01:22:24;95947.97;;;-9.20;86.79
30110;BME280;14965;50.660;13.226;2024-01-11T01:24:50;95948.72;;;-9.14;86.90
30110;BME280;14965;50.660;13.226;2024-01-11T01:27:16;95947.06;;;-9.10;86.71
30110;BME280;14965;50.660;13.226;2024-01-11T01:29:42;95941.97;;;-9.12;86.39
30110;BME280;14965;50.660;13.226;2024-01-11T01:32:08;95939.66;;;-9.18;85.97
30110;BME280;14965;50.660;13.226;2024-01-11T01:34:34;95928.97;;;-9.18;86.25
30110;BME280;14965;50.660;13.226;2024-01-11T01:37:00;95933.78;;;-9.20;85.63
30110;BME280;14965;50.660;13.226;2024-01-11T01:39:28;95934.94;;;-9.26;85.60
30110;BME280;14965;50.660;13.226;2024-01-11T01:41:53;95938.13;;;-9.24;85.61
30110;BME280;14965;50.660;13.226;2024-01-11T01:44:19;95937.06;;;-9.23;86.20
30110;BME280;14965;50.660;13.226;2024-01-11T01:46:46;95922.59;;;-9.22;86.07
30110;BME280;14965;50.660;13.226;2024-01-11T01:49:13;95916.16;;;-9.21;86.50
30110;BME280;14965;50.660;13.226;2024-01-11T01:51:40;95919.91;;;-9.22;86.54
30110;BME280;14965;50.660;13.226;2024-01-11T01:54:06;95915.44;;;-9.27;86.05
30110;BME280;14965;50.660;13.226;2024-01-11T01:56:34;95916.28;;;-9.32;86.22
30110;BME280;14965;50.660;13.226;2024-01-11T01:59:02;95909.31;;;-9.33;85.67
30110;BME280;14965;50.660;13.226;2024-01-11T02:01:30;95905.06;;;-9.34;85.60
30110;BME280;14965;50.660;13.226;2024-01-11T02:03:56;95899.22;;;-9.36;85.52
30110;BME280;14965;50.660;13.226;2024-01-11T02:06:25;95902.56;;;-9.49;85.11
30110;BME280;14965;50.660;13.226;2024-01-11T02:08:53;95908.84;;;-9.59;85.10
30110;BME280;14965;50.660;13.226;2024-01-11T02:11:21;95907.75;;;-9.58;85.26
30110;BME280;14965;50.660;13.226;2024-01-11T02:13:49;95912.31;;;-9.58;85.79
30110;BME280;14965;50.660;13.226;2024-01-11T02:16:16;95906.88;;;-9.53;86.29
30110;BME280;14965;50.660;13.226;2024-01-11T02:18:43;95910.38;;;-9.52;86.36
30110;BME280;14965;50.660;13.226;2024-01-11T02:21:11;95909.41;;;-9.62;85.95
30110;BME280;14965;50.660;13.226;2024-01-11T02:23:43;95909.19;;;-9.65;86.37
30110;BME280;14965;50.660;13.226;2024-01-11T02:26:10;95909.69;;;-9.63;86.54
30110;BME280;14965;50.660;13.226;2024-01-11T02:28:37;95909.13;;;-9.60;86.90
30110;BME280;14965;50.660;13.226;2024-01-11T02:31:03;95909.38;;;-9.57;86.49
30110;BME280;14965;50.660;13.226;2024-01-11T02:33:29;95918.72;;;-9.59;86.53
30110;BME280;14965;50.660;13.226;2024-01-11T02:35:55;95922.72;;;-9.57;86.94
30110;BME280;14965;50.660;13.226;2024-01-11T02:38:22;95920.00;;;-9.51;87.21
30110;BME280;14965;50.660;13.226;2024-01-11T02:40:49;95911.13;;;-9.47;87.34
30110;BME280;14965;50.660;13.226;2024-01-11T02:43:17;95910.59;;;-9.49;87.45
30110;BME280;14965;50.660;13.226;2024-01-11T02:45:43;95915.16;;;-9.49;87.38
30110;BME280;14965;50.660;13.226;2024-01-11T02:48:09;95911.44;;;-9.54;87.02
30110;BME280;14965;50.660;13.226;2024-01-11T02:50:35;95913.31;;;-9.54;86.80
30110;BME280;14965;50.660;13.226;2024-01-11T02:53:02;95908.78;;;-9.54;87.07
30110;BME280;14965;50.660;13.226;2024-01-11T02:55:28;95907.97;;;-9.54;87.27
30110;BME280;14965;50.660;13.226;2024-01-11T02:57:54;95911.75;;;-9.55;86.62
30110;BME280;14965;50.660;13.226;2024-01-11T03:00:21;95922.28;;;-9.64;86.73
30110;BME280;14965;50.660;13.226;2024-01-11T03:02:48;95911.03;;;-9.66;86.71
30110;BME280;14965;50.660;13.226;2024-01-11T03:05:14;95914.25;;;-9.64;86.85
30110;BME280;14965;50.660;13.226;2024-01-11T03:07:40;95914.75;;;-9.62;86.84
30110;BME280;14965;50.660;13.226;2024-01-11T03:10:06;95930.22;;;-9.59;86.93
30110;BME280;14965;50.660;13.226;2024-01-11T03:12:33;95925.16;;;-9.60;86.76
30110;BME280;14965;50.660;13.226;2024-01-11T03:14:59;95925.16;;;-9.60;86.87
30110;BME280;14965;50.660;13.226;2024-01-11T03:17:26;95925.66;;;-9.58;86.71
30110;BME280;14965;50.660;13.226;2024-01-11T03:19:52;95931.53;;;-9.56;86.63
30110;BME280;14965;50.660;13.226;2024-01-11T03:22:18;95920.84;;;-9.56;86.31
30110;BME280;14965;50.660;13.226;2024-01-11T03:24:44;95924.38;;;-9.61;85.83
30110;BME280;14965;50.660;13.226;2024-01-11T03:27:10;95932.44;;;-9.66;86.22
30110;BME280;14965;50.660;13.226;2024-01-11T03:29:36;95936.97;;;-9.66;85.94
30110;BME280;14965;50.660;13.226;2024-01-11T03:32:03;95926.03;;;-9.65;86.05
30110;BME280;14965;50.660;13.226;2024-01-11T03:34:31;95933.19;;;-9.60;86.18
30110;BME280;14965;50.660;13.226;2024-01-11T03:36:57;95930.53;;;-9.60;86.56
30110;BME280;14965;50.660;13.226;2024-01-11T03:39:25;95931.88;;;-9.63;86.37
30110;BME280;14965;50.660;13.226;2024-01-11T03:41:51;95921.97;;;-9.62;86.14
30110;BME280;14965;50.660;13.226;2024-01-11T03:44:17;95924.38;;;-9.61;85.98
30110;BME280;14965;50.660;13.226;2024-01-11T03:46:43;95923.59;;;-9.61;86.35
30110;BME280;14965;50.660;13.226;2024-01-11T03:49:08;95936.97;;;-9.61;86.04
30110;BME280;14965;50.660;13.226;2024-01-11T03:51:36;95934.53;;;-9.63;86.12
30110;BME280;14965;50.660;13.226;2024-01-11T03:54:02;95937.22;;;-9.63;86.19
30110;BME280;14965;50.660;13.226;2024-01-11T03:56:28;95934.84;;;-9.64;86.03
30110;BME280;14965;50.660;13.226;2024-01-11T03:58:55;95929.19;;;-9.63;86.22
30110;BME280;14965;50.660;13.226;2024-01-11T04:01:21;95928.41;;;-9.63;86.40
30110;BME280;14965;50.660;13.226;2024-01-11T04:03:47;95928.47;;;-9.68;86.24
30110;BME280;14965;50.660;13.226;2024-01-11T04:06:19;95926.34;;;-9.71;86.10
30110;BME280;14965;50.660;13.226;2024-01-11T04:08:47;95927.44;;;-9.72;86.12
30110;BME280;14965;50.660;13.226;2024-01-11T04:11:13;95918.63;;;-9.73;86.26
30110;BME280;14965;50.660;13.226;2024-01-11T04:13:39;95921.53;;;-9.69;85.99
30110;BME280;14965;50.660;13.226;2024-01-11T04:16:06;95914.31;;;-9.69;86.30
30110;BME280;14965;50.660;13.226;2024-01-11T04:18:32;95905.19;;;-9.68;86.42
30110;BME280;14965;50.660;13.226;2024-01-11T04:20:58;95908.38;;;-9.66;86.77
30110;BME280;14965;50.660;13.226;2024-01-11T04:23:25;95906.00;;;-9.67;86.41
30110;BME280;14965;50.660;13.226;2024-01-11T04:25:52;95913.50;;;-9.69;85.84
30110;BME280;14965;50.660;13.226;2024-01-11T04:28:18;95904.97;;;-9.71;85.96
30110;BME280;14965;50.660;13.226;2024-01-11T04:30:47;95893.19;;;-9.70;86.30
30110;BME280;14965;50.660;13.226;2024-01-11T04:33:13;95906.56;;;-9.70;86.27
30110;BME280;14965;50.660;13.226;2024-01-11T04:35:39;95909.91;;;-9.84;86.18
30110;BME280;14965;50.660;13.226;2024-01-11T04:38:06;95912.88;;;-9.85;86.77
30110;BME280;14965;50.660;13.226;2024-01-11T04:40:31;95912.31;;;-9.82;86.95
30110;BME280;14965;50.660;13.226;2024-01-11T04:42:59;95920.28;;;-9.77;86.82
30110;BME280;14965;50.660;13.226;2024-01-11T04:45:25;95924.25;;;-9.74;86.62
30110;BME280;14965;50.660;13.226;2024-01-11T04:47:51;95904.97;;;-9.71;86.87
30110;BME280;14965;50.660;13.226;2024-01-11T04:50:17;95902.84;;;-9.74;86.48
30110;BME280;14965;50.660;13.226;2024-01-11T04:52:43;95898.09;;;-9.77;86.20
30110;BME280;14965;50.660;13.226;2024-01-11T04:55:09;95899.44;;;-9.80;86.25
30110;BME280;14965;50.660;13.226;2024-01-11T04:57:36;95890.88;;;-9.77;86.34
30110;BME280;14965;50.660;13.226;2024-01-11T05:00:05;95901.81;;;-9.73;86.54
30110;BME280;14965;50.660;13.226;2024-01-11T05:02:31;95909.28;;;-9.75;86.66
30110;BME280;14965;50.660;13.226;2024-01-11T05:04:57;95913.03;;;-9.76;86.87
30110;BME280;14965;50.660;13.226;2024-01-11T05:07:23;95901.81;;;-9.73;87.19
30110;BME280;14965;50.660;13.226;2024-01-11T05:09:49;95895.31;;;-9.67;87.29
30110;BME280;14965;50.660;13.226;2024-01-11T05:12:15;95891.78;;;-9.63;87.44
30110;BME280;14965;50.660;13.226;2024-01-11T05:14:41;95890.69;;;-9.62;87.02
30110;BME280;14965;50.660;13.226;2024-01-11T05:17:08;95895.81;;;-9.65;86.77
30110;BME280;14965;50.660;13.226;2024-01-11T05:19:35;95898.75;;;-9.67;86.50
30110;BME280;14965;50.660;13.226;2024-01-11T05:22:01;95906.00;;;-9.67;86.21
30110;BME280;14965;50.660;13.226;2024-01-11T05:24:27;95920.94;;;-9.66;86.43
30110;BME280;14965;50.660;13.226;2024-01-11T05:26:53;95923.06;;;-9.63;86.63
30110;BME280;14965;50.660;13.226;2024-01-11T05:29:19;95921.19;;;-9.63;86.89
30110;BME280;14965;50.660;13.226;2024-01-11T05:31:45;95927.06;;;-9.61;86.91
30110;BME280;14965;50.660;13.226;2024-01-11T05:34:12;95938.88;;;-9.67;86.74
30110;BME280;14965;50.660;13.226;2024-01-11T05:36:38;95933.81;;;-9.68;86.84
30110;BME280;14965;50.660;13.226;2024-01-11T05:39:04;95933.25;;;-9.65;86.52
30110;BME280;14965;50.660;13.226;2024-01-11T05:41:30;95933.81;;;-9.68;86.40
30110;BME280;14965;50.660;13.226;2024-01-11T05:43:56;95936.19;;;-9.67;86.50
30110;BME280;14965;50.660;13.226;2024-01-11T05:46:22;95951.19;;;-9.71;86.19
30110;BME280;14965;50.660;13.226;2024-01-11T05:48:49;95949.38;;;-9.75;86.45
30110;BME280;14965;50.660;13.226;2024-01-11T05:51:16;95933.28;;;-9.70;87.75
30110;BME280;14965;50.660;13.226;2024-01-11T05:53:42;95938.59;;;-9.65;87.63
30110;BME280;14965;50.660;13.226;2024-01-11T05:56:08;95952.28;;;-9.72;87.14
30110;BME280;14965;50.660;13.226;2024-01-11T05:58:35;95957.63;;;-9.72;87.38
30110;BME280;14965;50.660;13.226;2024-01-11T06:01:01;95962.69;;;-9.70;87.38
30110;BME280;14965;50.660;13.226;2024-01-11T06:03:27;95952.00;;;-9.70;87.40
30110;BME280;14965;50.660;13.226;2024-01-11T06:05:53;95954.41;;;-9.69;87.40
30110;BME280;14965;50.660;13.226;2024-01-11T06:08:20;95955.69;;;-9.66;87.34
30110;BME280;14965;50.660;13.226;2024-01-11T06:10:46;95948.94;;;-9.59;87.63
30110;BME280;14965;50.660;13.226;2024-01-11T06:13:13;95933.91;;;-9.55;87.44
30110;BME280;14965;50.660;13.226;2024-01-11T06:15:39;95941.66;;;-9.53;87.27
30110;BME280;14965;50.660;13.226;2024-01-11T06:18:05;95929.66;;;-9.56;87.13
30110;BME280;14965;50.660;13.226;2024-01-11T06:20:31;95924.59;;;-9.57;86.90
30110;BME280;14965;50.660;13.226;2024-01-11T06:22:57;95931.53;;;-9.56;86.76
30110;BME280;14965;50.660;13.226;2024-01-11T06:25:24;95916.00;;;-9.54;86.56
30110;BME280;14965;50.660;13.226;2024-01-11T06:27:50;95921.88;;;-9.52;86.74
30110;BME280;14965;50.660;13.226;2024-01-11T06:30:17;95931.88;;;-9.63;86.85
30110;BME280;14965;50.660;13.226;2024-01-11T06:32:43;95939.63;;;-9.61;87.43
30110;BME280;14965;50.660;13.226;2024-01-11T06:35:09;95935.00;;;-9.56;87.25
30110;BME280;14965;50.660;13.226;2024-01-11T06:37:35;95965.22;;;-9.55;87.30
30110;BME280;14965;50.660;13.226;2024-01-11T06:40:01;95966.38;;;-9.61;87.22
30110;BME280;14965;50.660;13.226;2024-01-11T06:42:29;95971.41;;;-9.60;87.71
30110;BME280;14965;50.660;13.226;2024-01-11T06:44:55;95971.34;;;-9.55;87.71
30110;BME280;14965;50.660;13.226;2024-01-11T06:47:21;95987.16;;;-9.58;87.53
30110;BME280;14965;50.660;13.226;2024-01-11T06:49:47;95973.34;;;-9.65;87.57
30110;BME280;14965;50.660;13.226;2024-01-11T06:52:13;95963.97;;;-9.63;87.65
30110;BME280;14965;50.660;13.226;2024-01-11T06:54:40;95945.47;;;-9.59;87.69
30110;BME280;14965;50.660;13.226;2024-01-11T06:57:06;95958.84;;;-9.59;87.47
30110;BME280;14965;50.660;13.226;2024-01-11T06:59:33;95950.81;;;-9.59;87.84
30110;BME280;14965;50.660;13.226;2024-01-11T07:01:59;95956.16;;;-9.59;87.67
30110;BME280;14965;50.660;13.226;2024-01-11T07:04:25;95980.34;;;-9.69;87.20
30110;BME280;14965;50.660;13.226;2024-01-11T07:06:51;95979.81;;;-9.71;88.42
30110;BME280;14965;50.660;13.226;2024-01-11T07:09:17;95972.28;;;-9.64;88.63
30110;BME280;14965;50.660;13.226;2024-01-11T07:11:43;95975.13;;;-9.56;88.45
30110;BME280;14965;50.660;13.226;2024-01-11T07:14:09;95971.28;;;-9.49;88.15
30110;BME280;14965;50.660;13.226;2024-01-11T07:16:37;95960.34;;;-9.48;88.40
30110;BME280;14965;50.660;13.226;2024-01-11T07:19:03;95954.75;;;-9.51;88.13
30110;BME280;14965;50.660;13.226;2024-01-11T07:21:29;95962.25;;;-9.54;87.83
30110;BME280;14965;50.660;13.226;2024-01-11T07:23:55;95960.91;;;-9.51;88.01
30110;BME280;14965;50.660;13.226;2024-01-11T07:26:21;95959.75;;;-9.45;87.98
30110;BME280;14965;50.660;13.226;2024-01-11T07:28:47;95959.13;;;-9.37;87.50
30110;BME280;14965;50.660;13.226;2024-01-11T07:31:14;95956.91;;;-9.30;87.71
30110;BME280;14965;50.660;13.226;2024-01-11T07:33:41;95942.59;;;-9.20;87.65
30110;BME280;14965;50.660;13.226;2024-01-11T07:36:07;95941.19;;;-9.12;87.49
30110;BME280;14965;50.660;13.226;2024-01-11T07:38:33;95935.03;;;-9.13;87.63
30110;BME280;14965;50.660;13.226;2024-01-11T07:40:59;95934.41;;;-9.05;87.37
30110;BME280;14965;50.660;13.226;2024-01-11T07:43:25;95921.47;;;-8.97;87.36
30110;BME280;14965;50.660;13.226;2024-01-11T07:45:51;95918.94;;;-8.89;87.39
30110;BME280;14965;50.660;13.226;2024-01-11T07:48:17;95912.94;;;-8.81;87.46
30110;BME280;14965;50.660;13.226;2024-01-11T07:50:44;95908.50;;;-8.71;87.41
30110;BME280;14965;50.660;13.226;2024-01-11T07:53:10;95918.56;;;-8.63;87.15
30110;BME280;14965;50.660;13.226;2024-01-11T07:55:36;95923.56;;;-8.57;87.00
30110;BME280;14965;50.660;13.226;2024-01-11T07:58:03;95927.63;;;-8.59;86.92
30110;BME280;14965;50.660;13.226;2024-01-11T08:00:28;95933.75;;;-8.59;87.34
30110;BME280;14965;50.660;13.226;2024-01-11T08:02:54;95928.84;;;-8.51;87.80
30110;BME280;14965;50.660;13.226;2024-01-11T08:05:20;95904.00;;;-8.38;87.71
30110;BME280;14965;50.660;13.226;2024-01-11T08:07:48;95905.31;;;-8.22;88.27
30110;BME280;14965;50.660;13.226;2024-01-11T08:10:14;95879.94;;;-8.11;88.21
30110;BME280;14965;50.660;13.226;2024-01-11T08:12:40;95876.53;;;-8.03;88.59
30110;BME280;14965;50.660;13.226;2024-01-11T08:15:07;95900.69;;;-8.03;88.76
30110;BME280;14965;50.660;13.226;2024-01-11T08:17:33;95908.13;;;-7.99;89.22
30110;BME280;14965;50.660;13.226;2024-01-11T08:19:59;95902.41;;;-7.93;89.48
30110;BME280;14965;50.660;13.226;2024-01-11T08:22:25;95897.16;;;-7.84;88.63
30110;BME280;14965;50.660;13.226;2024-01-11T08:24:52;95889.22;;;-7.75;88.76
30110;BME280;14965;50.660;13.226;2024-01-11T08:27:18;95902.25;;;-7.69;88.70
30110;BME280;14965;50.660;13.226;2024-01-11T08:29:44;95908.28;;;-7.63;88.97
30110;BME280;14965;50.660;13.226;2024-01-11T08:32:10;95899.34;;;-7.59;88.07
30110;BME280;14965;50.660;13.226;2024-01-11T08:34:36;95908.88;;;-7.53;88.11
30110;BME280;14965;50.660;13.226;2024-01-11T08:37:02;95912.28;;;-7.47;88.32
30110;BME280;14965;50.660;13.226;2024-01-11T08:39:28;95920.72;;;-7.40;88.19
30110;BME280;14965;50.660;13.226;2024-01-11T08:41:55;95919.72;;;-7.30;88.17
30110;BME280;14965;50.660;13.226;2024-01-11T08:44:21;95931.47;;;-7.26;87.93
30110;BME280;14965;50.660;13.226;2024-01-11T08:46:47;95922.50;;;-7.21;88.02
30110;BME280;14965;50.660;13.226;2024-01-11T08:49:13;95923.50;;;-7.17;88.46
30110;BME280;14965;50.660;13.226;2024-01-11T08:51:38;95907.88;;;-7.15;89.08
30110;BME280;14965;50.660;13.226;2024-01-11T08:54:04;95908.38;;;-7.13;88.86
30110;BME280;14965;50.660;13.226;2024-01-11T08:56:30;95901.53;;;-7.19;88.79
30110;BME280;14965;50.660;13.226;2024-01-11T08:58:57;95895.09;;;-7.18;89.01
30110;BME280;14965;50.660;13.226;2024-01-11T09:01:23;95900.94;;;-7.16;89.22
30110;BME280;14965;50.660;13.226;2024-01-11T09:03:49;95908.88;;;-7.11;89.13
30110;BME280;14965;50.660;13.226;2024-01-11T09:06:15;95923.00;;;-7.06;89.18
30110;BME280;14965;50.660;13.226;2024-01-11T09:08:41;95925.38;;;-7.04;88.82
30110;BME280;14965;50.660;13.226;2024-01-11T09:11:07;95928.84;;;-7.04;88.88
30110;BME280;14965;50.660;13.226;2024-01-11T09:13:32;95935.41;;;-6.96;88.93
30110;BME280;14965;50.660;13.226;2024-01-11T09:16:00;95933.50;;;-6.82;89.47
30110;BME280;14965;50.660;13.226;2024-01-11T09:18:25;95928.59;;;-6.66;89.36
30110;BME280;14965;50.660;13.226;2024-01-11T09:20:51;95931.41;;;-6.48;88.75
30110;BME280;14965;50.660;13.226;2024-01-11T09:23:17;95940.25;;;-6.34;89.00
30110;BME280;14965;50.660;13.226;2024-01-11T09:25:43;95948.75;;;-6.18;88.74
30110;BME280;14965;50.660;13.226;2024-01-11T09:28:09;95942.53;;;-6.05;88.82
30110;BME280;14965;50.660;13.226;2024-01-11T09:30:35;95933.91;;;-5.93;88.82
30110;BME280;14965;50.660;13.226;2024-01-11T09:33:03;95945.16;;;-5.83;88.89
30110;BME280;14965;50.660;13.226;2024-01-11T09:35:29;95949.81;;;-5.74;88.80
30110;BME280;14965;50.660;13.226;2024-01-11T09:37:55;95950.16;;;-5.67;88.94
30110;BME280;14965;50.660;13.226;2024-01-11T09:40:21;95949.72;;;-5.61;89.08
30110;BME280;14965;50.660;13.226;2024-01-11T09:42:47;95936.94;;;-5.55;89.05
30110;BME280;14965;50.660;13.226;2024-01-11T09:45:14;95937.25;;;-5.48;89.52
30110;BME280;14965;50.660;13.226;2024-01-11T09:47:41;95934.94;;;-5.41;89.28
30110;BME280;14965;50.660;13.226;2024-01-11T09:50:09;95925.31;;;-5.33;89.16
30110;BME280;14965;50.660;13.226;2024-01-11T09:52:37;95929.00;;;-5.20;89.15
30110;BME280;14965;50.660;13.226;2024-01-11T09:55:06;95933.47;;;-5.07;88.66
30110;BME280;14965;50.660;13.226;2024-01-11T09:57:32;95938.91;;;-4.90;88.35
30110;BME280;14965;50.660;13.226;2024-01-11T10:00:05;95941.34;;;-4.71;86.36
30110;BME280;14965;50.660;13.226;2024-01-11T10:02:31;95939.78;;;-4.55;85.02
30110;BME280;14965;50.660;13.226;2024-01-11T10:04:57;95939.16;;;-4.43;83.54
30110;BME280;14965;50.660;13.226;2024-01-11T10:07:24;95936.59;;;-4.31;82.46
30110;BME280;14965;50.660;13.226;2024-01-11T10:09:51;95933.59;;;-4.20;81.98
30110;BME280;14965;50.660;13.226;2024-01-11T10:12:17;95933.44;;;-4.07;81.08
30110;BME280;14965;50.660;13.226;2024-01-11T10:14:43;95933.28;;;-3.93;79.18
30110;BME280;14965;50.660;13.226;2024-01-11T10:17:09;95943.09;;;-3.80;79.06
30110;BME280;14965;50.660;13.226;2024-01-11T10:19:35;95942.41;;;-3.68;78.37
30110;BME280;14965;50.660;13.226;2024-01-11T10:22:01;95945.13;;;-3.59;78.13
30110;BME280;14965;50.660;13.226;2024-01-11T10:24:28;95953.84;;;-3.54;77.82
30110;BME280;14965;50.660;13.226;2024-01-11T10:26:56;95964.63;;;-3.45;77.61
30110;BME280;14965;50.660;13.226;2024-01-11T10:29:21;95962.06;;;-3.33;77.01
30110;BME280;14965;50.660;13.226;2024-01-11T10:31:47;95939.09;;;-3.18;76.76
30110;BME280;14965;50.660;13.226;2024-01-11T10:34:14;95926.97;;;-3.03;76.53
30110;BME280;14965;50.660;13.226;2024-01-11T10:36:40;95924.81;;;-2.89;75.69
30110;BME280;14965;50.660;13.226;2024-01-11T10:39:08;95921.56;;;-2.73;75.00
30110;BME280;14965;50.660;13.226;2024-01-11T10:41:39;95916.75;;;-2.68;73.73
30110;BME280;14965;50.660;13.226;2024-01-11T10:44:11;95916.44;;;-2.66;72.58
30110;BME280;14965;50.660;13.226;2024-01-11T10:46:45;95926.41;;;-2.58;72.27
30110;BME280;14965;50.660;13.226;2024-01-11T10:49:16;95924.81;;;-2.38;71.52
30110;BME280;14965;50.660;13.226;2024-01-11T10:51:49;95928.34;;;-2.17;69.94
30110;BME280;14965;50.660;13.226;2024-01-11T10:54:16;95921.53;;;-2.02;68.26
30110;BME280;14965;50.660;13.226;2024-01-11T10:56:44;95917.88;;;-1.85;67.32
30110;BME280;14965;50.660;13.226;2024-01-11T10:59:11;95906.88;;;-1.68;67.66
30110;BME280;14965;50.660;13.226;2024-01-11T11:01:38;95901.47;;;-1.56;66.98
30110;BME280;14965;50.660;13.226;2024-01-11T11:04:06;95894.75;;;-1.49;66.92
30110;BME280;14965;50.660;13.226;2024-01-11T11:06:35;95893.81;;;-1.54;65.22
30110;BME280;14965;50.660;13.226;2024-01-11T11:09:03;95886.25;;;-1.60;65.74
30110;BME280;14965;50.660;13.226;2024-01-11T11:11:30;95876.41;;;-1.65;66.49
30110;BME280;14965;50.660;13.226;2024-01-11T11:14:00;95871.00;;;-1.65;66.97
30110;BME280;14965;50.660;13.226;2024-01-11T11:16:26;95877.19;;;-1.64;66.85
30110;BME280;14965;50.660;13.226;2024-01-11T11:18:54;95885.31;;;-1.64;66.27
30110;BME280;14965;50.660;13.226;2024-01-11T11:21:21;95891.22;;;-1.62;66.12
30110;BME280;14965;50.660;13.226;2024-01-11T11:23:47;95886.94;;;-1.51;65.35
30110;BME280;14965;50.660;13.226;2024-01-11T11:26:16;95886.28;;;-1.36;64.76
30110;BME280;14965;50.660;13.226;2024-01-11T11:28:42;95880.88;;;-1.23;64.12
30110;BME280;14965;50.660;13.226;2024-01-11T11:31:11;95878.19;;;-1.11;64.34
30110;BME280;14965;50.660;13.226;2024-01-11T11:33:37;95873.53;;;-0.98;63.53
30110;BME280;14965;50.660;13.226;2024-01-11T11:36:03;95869.81;;;-0.82;62.94
30110;BME280;14965;50.660;13.226;2024-01-11T11:38:31;95864.28;;;-0.85;63.47
30110;BME280;14965;50.660;13.226;2024-01-11T11:40:58;95858.28;;;-0.91;62.33
30110;BME280;14965;50.660;13.226;2024-01-11T11:43:27;95855.00;;;-0.96;62.37
30110;BME280;14965;50.660;13.226;2024-01-11T11:45:54;95850.84;;;-0.94;61.20
30110;BME280;14965;50.660;13.226;2024-01-11T11:48:50;95844.50;;;-1.10;60.30
30110;BME280;14965;50.660;13.226;2024-01-11T11:51:17;95835.16;;;-1.25;61.10
30110;BME280;14965;50.660;13.226;2024-01-11T11:53:45;95837.63;;;-1.44;59.57
30110;BME280;14965;50.660;13.226;2024-01-11T11:56:11;95837.59;;;-1.57;59.54
30110;BME280;14965;50.660;13.226;2024-01-11T11:58:38;95847.19;;;-1.59;59.96
30110;BME280;14965;50.660;13.226;2024-01-11T12:01:04;95844.72;;;-1.52;60.49
30110;BME280;14965;50.660;13.226;2024-01-11T12:03:32;95837.41;;;-1.39;61.00
30110;BME280;14965;50.660;13.226;2024-01-11T12:06:00;95833.00;;;-1.32;60.43
30110;BME280;14965;50.660;13.226;2024-01-11T12:08:27;95827.81;;;-1.24;59.85
30110;BME280;14965;50.660;13.226;2024-01-11T12:10:54;95824.63;;;-1.14;59.09
30110;BME280;14965;50.660;13.226;2024-01-11T12:13:20;95828.59;;;-1.12;58.76
30110;BME280;14965;50.660;13.226;2024-01-11T12:15:46;95822.47;;;-1.09;58.77
30110;BME280;14965;50.660;13.226;2024-01-11T12:18:13;95826.00;;;-1.08;59.50
30110;BME280;14965;50.660;13.226;2024-01-11T12:20:39;95816.50;;;-1.14;58.13
30110;BME280;14965;50.660;13.226;2024-01-11T12:23:07;95814.25;;;-1.12;58.21
30110;BME280;14965;50.660;13.226;2024-01-11T12:25:33;95816.28;;;-1.09;58.55
30110;BME280;14965;50.660;13.226;2024-01-11T12:28:00;95818.97;;;-1.09;58.57
30110;BME280;14965;50.660;13.226;2024-01-11T12:30:26;95811.06;;;-1.02;59.03
30110;BME280;14965;50.660;13.226;2024-01-11T12:32:53;95810.28;;;-0.90;59.55
30110;BME280;14965;50.660;13.226;2024-01-11T12:35:20;95806.66;;;-0.82;57.79
30110;BME280;14965;50.660;13.226;2024-01-11T12:37:53;95818.97;;;-0.85;58.79
30110;BME280;14965;50.660;13.226;2024-01-11T12:40:21;95810.72;;;-1.01;58.51
30110;BME280;14965;50.660;13.226;2024-01-11T12:42:47;95815.28;;;-1.17;58.46
30110;BME280;14965;50.660;13.226;2024-01-11T12:45:13;95815.28;;;-1.29;58.86
30110;BME280;14965;50.660;13.226;2024-01-11T12:47:39;95812.22;;;-1.28;60.15